sensor_id;sensor_type;location;lat;lon;timestamp;temperature;humidity
74822;DHT22;63353;48.702;8.884;2022-09-27T00:01:10;8.70;98.80
74822;DHT22;63353;48.702;8.884;2022-09-27T00:03:36;8.70;98.40
74822;DHT22;63353;48.702;8.884;2022-09-27T00:06:15;8.70;98.70
74822;DHT22;63353;48.702;8.884;2022-09-27T00:08:43;8.70;98.60
74822;DHT22;63353;48.702;8.884;2022-09-27T00:11:36;8.70;98.50
74822;DHT22;63353;48.702;8.884;2022-09-27T00:14:02;8.70;98.80
74822;DHT22;63353;48.702;8.884;2022-09-27T00:16:30;8.70;98.90
74822;DHT22;63353;48.702;8.884;2022-09-27T00:19:08;8.70;98.60
74822;DHT22;63353;48.702;8.884;2022-09-27T00:21:35;8.70;98.50
74822;DHT22;63353;48.702;8.884;2022-09-27T00:24:01;8.70;98.80
74822;DHT22;63353;48.702;8.884;2022-09-27T00:26:27;8.70;98.40
74822;DHT22;63353;48.702;8.884;2022-09-27T00:28:53;8.70;99.20
74822;DHT22;63353;48.702;8.884;2022-09-27T00:31:27;8.70;99.20
74822;DHT22;63353;48.702;8.884;2022-09-27T00:33:58;8.60;99.00
74822;DHT22;63353;48.702;8.884;2022-09-27T00:36:25;8.60;99.00
74822;DHT22;63353;48.702;8.884;2022-09-27T00:38:51;8.70;99.20
74822;DHT22;63353;48.702;8.884;2022-09-27T00:41:21;8.70;98.90
74822;DHT22;63353;48.702;8.884;2022-09-27T00:43:53;8.60;99.50
74822;DHT22;63353;48.702;8.884;2022-09-27T00:49:12;8.60;99.30
74822;DHT22;63353;48.702;8.884;2022-09-27T00:51:43;8.60;99.90
74822;DHT22;63353;48.702;8.884;2022-09-27T00:54:12;8.60;99.50
74822;DHT22;63353;48.702;8.884;2022-09-27T00:56:39;8.60;99.80
74822;DHT22;63353;48.702;8.884;2022-09-27T00:59:21;8.60;99.50
74822;DHT22;63353;48.702;8.884;2022-09-27T01:01:48;8.60;99.70
74822;DHT22;63353;48.702;8.884;2022-09-27T01:04:17;8.60;99.60
74822;DHT22;63353;48.702;8.884;2022-09-27T01:06:47;8.60;99.40
74822;DHT22;63353;48.702;8.884;2022-09-27T01:09:13;8.60;99.70
74822;DHT22;63353;48.702;8.884;2022-09-27T01:17:11;8.60;99.40
74822;DHT22;63353;48.702;8.884;2022-09-27T01:20:11;8.50;99.90
74822;DHT22;63353;48.702;8.884;2022-09-27T01:31:55;8.60;99.90
74822;DHT22;63353;48.702;8.884;2022-09-27T01:34:27;8.70;99.50
74822;DHT22;63353;48.702;8.884;2022-09-27T01:47:54;8.70;99.90
74822;DHT22;63353;48.702;8.884;2022-09-27T01:50:25;8.70;99.90
74822;DHT22;63353;48.702;8.884;2022-09-27T01:52:58;8.70;99.80
74822;DHT22;63353;48.702;8.884;2022-09-27T01:55:29;8.80;99.80
74822;DHT22;63353;48.702;8.884;2022-09-27T02:00:36;8.80;99.90
74822;DHT22;63353;48.702;8.884;2022-09-27T02:03:13;8.70;99.90
74822;DHT22;63353;48.702;8.884;2022-09-27T02:05:47;8.60;99.90
74822;DHT22;63353;48.702;8.884;2022-09-27T02:11:19;8.60;99.90
74822;DHT22;63353;48.702;8.884;2022-09-27T02:13:53;8.60;99.90
74822;DHT22;63353;48.702;8.884;2022-09-27T02:24:21;8.40;99.00
74822;DHT22;63353;48.702;8.884;2022-09-27T02:26:57;8.40;99.10
74822;DHT22;63353;48.702;8.884;2022-09-27T02:29:39;8.20;97.50
74822;DHT22;63353;48.702;8.884;2022-09-27T02:32:05;8.20;97.00
74822;DHT22;63353;48.702;8.884;2022-09-27T02:34:33;8.00;97.20
74822;DHT22;63353;48.702;8.884;2022-09-27T02:37:00;7.90;97.50
74822;DHT22;63353;48.702;8.884;2022-09-27T02:39:26;7.80;97.80
74822;DHT22;63353;48.702;8.884;2022-09-27T02:41:52;7.70;98.20
74822;DHT22;63353;48.702;8.884;2022-09-27T02:44:18;7.70;98.00
74822;DHT22;63353;48.702;8.884;2022-09-27T02:55:04;7.60;98.70
74822;DHT22;63353;48.702;8.884;2022-09-27T03:00:26;7.80;97.90
74822;DHT22;63353;48.702;8.884;2022-09-27T03:03:04;7.80;98.70
74822;DHT22;63353;48.702;8.884;2022-09-27T03:06:22;7.80;98.40
74822;DHT22;63353;48.702;8.884;2022-09-27T03:08:22;7.80;98.50
74822;DHT22;63353;48.702;8.884;2022-09-27T03:10:48;7.70;98.60
74822;DHT22;63353;48.702;8.884;2022-09-27T03:13:14;7.80;98.20
74822;DHT22;63353;48.702;8.884;2022-09-27T03:15:39;7.80;98.50
74822;DHT22;63353;48.702;8.884;2022-09-27T03:18:05;7.80;98.30
74822;DHT22;63353;48.702;8.884;2022-09-27T03:20:31;7.80;98.70
74822;DHT22;63353;48.702;8.884;2022-09-27T03:22:57;7.80;98.50
74822;DHT22;63353;48.702;8.884;2022-09-27T03:25:23;7.80;98.70
74822;DHT22;63353;48.702;8.884;2022-09-27T03:27:48;7.80;98.80
74822;DHT22;63353;48.702;8.884;2022-09-27T03:30:14;7.80;99.00
74822;DHT22;63353;48.702;8.884;2022-09-27T03:32:43;7.80;99.40
74822;DHT22;63353;48.702;8.884;2022-09-27T03:35:11;7.80;99.10
74822;DHT22;63353;48.702;8.884;2022-09-27T03:37:37;7.80;98.80
74822;DHT22;63353;48.702;8.884;2022-09-27T03:40:03;7.90;98.70
74822;DHT22;63353;48.702;8.884;2022-09-27T03:42:29;7.90;99.20
74822;DHT22;63353;48.702;8.884;2022-09-27T03:44:55;7.80;98.80
74822;DHT22;63353;48.702;8.884;2022-09-27T03:47:20;7.80;98.80
74822;DHT22;63353;48.702;8.884;2022-09-27T03:49:47;7.90;99.30
74822;DHT22;63353;48.702;8.884;2022-09-27T03:52:13;7.90;98.50
74822;DHT22;63353;48.702;8.884;2022-09-27T03:54:39;7.90;98.80
74822;DHT22;63353;48.702;8.884;2022-09-27T03:57:05;8.00;98.90
74822;DHT22;63353;48.702;8.884;2022-09-27T03:59:30;7.90;99.10
74822;DHT22;63353;48.702;8.884;2022-09-27T04:01:56;7.90;98.80
74822;DHT22;63353;48.702;8.884;2022-09-27T04:04:21;8.00;99.50
74822;DHT22;63353;48.702;8.884;2022-09-27T04:06:48;7.80;99.70
74822;DHT22;63353;48.702;8.884;2022-09-27T04:09:14;7.80;99.90
74822;DHT22;63353;48.702;8.884;2022-09-27T04:11:40;7.80;99.90
74822;DHT22;63353;48.702;8.884;2022-09-27T04:14:05;7.80;99.90
74822;DHT22;63353;48.702;8.884;2022-09-27T04:16:33;7.80;99.90
74822;DHT22;63353;48.702;8.884;2022-09-27T04:18:59;7.80;99.90
74822;DHT22;63353;48.702;8.884;2022-09-27T04:21:26;7.80;99.80
74822;DHT22;63353;48.702;8.884;2022-09-27T04:23:52;7.80;99.90
74822;DHT22;63353;48.702;8.884;2022-09-27T04:26:18;7.90;99.70
74822;DHT22;63353;48.702;8.884;2022-09-27T04:28:45;7.90;99.60
74822;DHT22;63353;48.702;8.884;2022-09-27T04:31:11;7.80;99.80
74822;DHT22;63353;48.702;8.884;2022-09-27T04:33:37;7.80;99.90
74822;DHT22;63353;48.702;8.884;2022-09-27T04:36:03;7.80;99.90
74822;DHT22;63353;48.702;8.884;2022-09-27T04:38:47;7.80;99.90
74822;DHT22;63353;48.702;8.884;2022-09-27T04:41:13;7.80;99.90
74822;DHT22;63353;48.702;8.884;2022-09-27T04:43:39;7.80;99.90
74822;DHT22;63353;48.702;8.884;2022-09-27T04:46:05;7.80;99.10
74822;DHT22;63353;48.702;8.884;2022-09-27T04:48:31;7.80;99.30
74822;DHT22;63353;48.702;8.884;2022-09-27T04:50:59;7.80;99.10
74822;DHT22;63353;48.702;8.884;2022-09-27T04:53:27;7.80;98.70
74822;DHT22;63353;48.702;8.884;2022-09-27T04:55:54;7.80;98.80
74822;DHT22;63353;48.702;8.884;2022-09-27T04:58:24;7.80;98.60
74822;DHT22;63353;48.702;8.884;2022-09-27T05:00:50;7.80;98.40
74822;DHT22;63353;48.702;8.884;2022-09-27T05:03:20;7.80;98.40
74822;DHT22;63353;48.702;8.884;2022-09-27T05:05:46;7.90;97.70
74822;DHT22;63353;48.702;8.884;2022-09-27T05:08:12;7.90;98.40
74822;DHT22;63353;48.702;8.884;2022-09-27T05:10:38;7.90;98.50
74822;DHT22;63353;48.702;8.884;2022-09-27T05:13:04;7.90;98.10
74822;DHT22;63353;48.702;8.884;2022-09-27T05:15:31;7.80;98.20
74822;DHT22;63353;48.702;8.884;2022-09-27T05:17:56;7.80;97.80
74822;DHT22;63353;48.702;8.884;2022-09-27T05:20:23;7.80;98.60
74822;DHT22;63353;48.702;8.884;2022-09-27T05:22:50;7.70;98.50
74822;DHT22;63353;48.702;8.884;2022-09-27T05:25:16;7.70;99.20
74822;DHT22;63353;48.702;8.884;2022-09-27T05:27:42;7.70;99.40
74822;DHT22;63353;48.702;8.884;2022-09-27T05:30:08;7.60;99.50
74822;DHT22;63353;48.702;8.884;2022-09-27T05:32:34;7.60;99.50
74822;DHT22;63353;48.702;8.884;2022-09-27T05:35:00;7.50;99.40
74822;DHT22;63353;48.702;8.884;2022-09-27T05:37:26;7.50;99.00
74822;DHT22;63353;48.702;8.884;2022-09-27T05:39:52;7.60;98.60
74822;DHT22;63353;48.702;8.884;2022-09-27T05:42:18;7.60;98.40
74822;DHT22;63353;48.702;8.884;2022-09-27T05:44:44;7.50;98.40
74822;DHT22;63353;48.702;8.884;2022-09-27T05:47:13;7.40;98.60
74822;DHT22;63353;48.702;8.884;2022-09-27T05:49:39;7.40;98.30
74822;DHT22;63353;48.702;8.884;2022-09-27T05:52:05;7.40;98.80
74822;DHT22;63353;48.702;8.884;2022-09-27T05:54:31;7.50;98.00
74822;DHT22;63353;48.702;8.884;2022-09-27T05:56:57;7.50;98.80
74822;DHT22;63353;48.702;8.884;2022-09-27T05:59:24;7.50;98.50
74822;DHT22;63353;48.702;8.884;2022-09-27T06:01:51;7.50;97.50
74822;DHT22;63353;48.702;8.884;2022-09-27T06:04:17;7.50;98.10
74822;DHT22;63353;48.702;8.884;2022-09-27T06:06:43;7.60;97.50
74822;DHT22;63353;48.702;8.884;2022-09-27T06:09:14;7.60;96.80
74822;DHT22;63353;48.702;8.884;2022-09-27T06:11:41;7.70;97.80
74822;DHT22;63353;48.702;8.884;2022-09-27T06:14:13;7.70;97.20
74822;DHT22;63353;48.702;8.884;2022-09-27T06:16:39;7.70;97.60
74822;DHT22;63353;48.702;8.884;2022-09-27T06:19:04;7.70;97.60
74822;DHT22;63353;48.702;8.884;2022-09-27T06:21:30;7.70;97.90
74822;DHT22;63353;48.702;8.884;2022-09-27T06:23:57;7.70;98.10
74822;DHT22;63353;48.702;8.884;2022-09-27T06:26:24;7.70;98.10
74822;DHT22;63353;48.702;8.884;2022-09-27T06:28:52;7.70;97.50
74822;DHT22;63353;48.702;8.884;2022-09-27T06:31:17;7.60;97.70
74822;DHT22;63353;48.702;8.884;2022-09-27T06:33:43;7.60;97.50
74822;DHT22;63353;48.702;8.884;2022-09-27T06:36:10;7.60;97.60
74822;DHT22;63353;48.702;8.884;2022-09-27T06:38:36;7.60;98.40
74822;DHT22;63353;48.702;8.884;2022-09-27T06:41:03;7.60;97.90
74822;DHT22;63353;48.702;8.884;2022-09-27T06:43:31;7.70;96.70
74822;DHT22;63353;48.702;8.884;2022-09-27T06:45:59;7.70;97.30
74822;DHT22;63353;48.702;8.884;2022-09-27T06:48:30;7.80;97.10
74822;DHT22;63353;48.702;8.884;2022-09-27T06:50:56;7.80;97.20
74822;DHT22;63353;48.702;8.884;2022-09-27T06:53:23;7.90;96.30
74822;DHT22;63353;48.702;8.884;2022-09-27T06:55:49;7.80;97.10
74822;DHT22;63353;48.702;8.884;2022-09-27T06:58:16;7.80;96.60
74822;DHT22;63353;48.702;8.884;2022-09-27T07:01:00;7.80;97.10
74822;DHT22;63353;48.702;8.884;2022-09-27T07:03:26;7.80;95.80
74822;DHT22;63353;48.702;8.884;2022-09-27T07:06:01;7.90;96.00
74822;DHT22;63353;48.702;8.884;2022-09-27T07:08:28;8.10;96.60
74822;DHT22;63353;48.702;8.884;2022-09-27T07:11:14;8.10;95.40
74822;DHT22;63353;48.702;8.884;2022-09-27T07:13:40;7.90;96.70
74822;DHT22;63353;48.702;8.884;2022-09-27T07:16:10;7.90;95.40
74822;DHT22;63353;48.702;8.884;2022-09-27T07:18:37;7.90;95.70
74822;DHT22;63353;48.702;8.884;2022-09-27T07:21:03;7.90;95.90
74822;DHT22;63353;48.702;8.884;2022-09-27T07:23:29;8.00;95.70
74822;DHT22;63353;48.702;8.884;2022-09-27T07:25:55;8.10;95.40
74822;DHT22;63353;48.702;8.884;2022-09-27T07:28:20;8.10;95.10
74822;DHT22;63353;48.702;8.884;2022-09-27T07:30:46;8.10;95.20
74822;DHT22;63353;48.702;8.884;2022-09-27T07:33:12;8.20;94.80
74822;DHT22;63353;48.702;8.884;2022-09-27T07:35:38;8.40;95.80
74822;DHT22;63353;48.702;8.884;2022-09-27T07:38:05;8.70;95.10
74822;DHT22;63353;48.702;8.884;2022-09-27T07:40:35;8.70;94.20
74822;DHT22;63353;48.702;8.884;2022-09-27T07:43:00;8.80;94.70
74822;DHT22;63353;48.702;8.884;2022-09-27T07:45:27;8.80;94.80
74822;DHT22;63353;48.702;8.884;2022-09-27T07:47:53;8.60;94.00
74822;DHT22;63353;48.702;8.884;2022-09-27T07:50:19;8.70;94.80
74822;DHT22;63353;48.702;8.884;2022-09-27T07:52:47;8.90;94.40
74822;DHT22;63353;48.702;8.884;2022-09-27T07:55:17;9.00;94.90
74822;DHT22;63353;48.702;8.884;2022-09-27T07:57:43;9.00;93.40
74822;DHT22;63353;48.702;8.884;2022-09-27T08:00:14;9.10;93.50
74822;DHT22;63353;48.702;8.884;2022-09-27T08:02:41;9.30;92.60
74822;DHT22;63353;48.702;8.884;2022-09-27T08:05:07;9.30;92.80
74822;DHT22;63353;48.702;8.884;2022-09-27T08:07:34;9.50;92.80
74822;DHT22;63353;48.702;8.884;2022-09-27T08:09:59;9.50;93.20
74822;DHT22;63353;48.702;8.884;2022-09-27T08:12:25;9.60;92.70
74822;DHT22;63353;48.702;8.884;2022-09-27T08:14:51;9.50;92.50
74822;DHT22;63353;48.702;8.884;2022-09-27T08:17:17;9.30;93.10
74822;DHT22;63353;48.702;8.884;2022-09-27T08:19:44;9.10;94.30
74822;DHT22;63353;48.702;8.884;2022-09-27T08:22:13;9.00;94.50
74822;DHT22;63353;48.702;8.884;2022-09-27T08:24:39;8.80;94.20
74822;DHT22;63353;48.702;8.884;2022-09-27T08:27:05;8.60;96.00
74822;DHT22;63353;48.702;8.884;2022-09-27T08:29:33;8.50;94.60
74822;DHT22;63353;48.702;8.884;2022-09-27T08:31:59;8.40;94.20
74822;DHT22;63353;48.702;8.884;2022-09-27T08:34:24;8.40;94.70
74822;DHT22;63353;48.702;8.884;2022-09-27T08:36:50;8.40;95.60
74822;DHT22;63353;48.702;8.884;2022-09-27T08:39:16;8.60;94.80
74822;DHT22;63353;48.702;8.884;2022-09-27T08:47:26;10.10;92.00
74822;DHT22;63353;48.702;8.884;2022-09-27T08:50:03;9.80;91.90
74822;DHT22;63353;48.702;8.884;2022-09-27T08:52:42;9.60;92.00
74822;DHT22;63353;48.702;8.884;2022-09-27T08:55:24;9.70;91.80
74822;DHT22;63353;48.702;8.884;2022-09-27T08:57:56;10.00;90.10
74822;DHT22;63353;48.702;8.884;2022-09-27T09:00:22;9.80;91.20
74822;DHT22;63353;48.702;8.884;2022-09-27T09:02:48;10.00;90.90
74822;DHT22;63353;48.702;8.884;2022-09-27T09:05:18;9.80;90.60
74822;DHT22;63353;48.702;8.884;2022-09-27T09:13:47;9.80;91.20
74822;DHT22;63353;48.702;8.884;2022-09-27T09:35:40;10.30;87.00
74822;DHT22;63353;48.702;8.884;2022-09-27T09:38:10;10.70;84.50
74822;DHT22;63353;48.702;8.884;2022-09-27T09:40:50;10.70;86.00
74822;DHT22;63353;48.702;8.884;2022-09-27T09:43:25;10.70;87.90
74822;DHT22;63353;48.702;8.884;2022-09-27T09:46:02;11.00;89.00
74822;DHT22;63353;48.702;8.884;2022-09-27T09:51:05;11.10;84.20
74822;DHT22;63353;48.702;8.884;2022-09-27T09:53:44;11.50;83.30
74822;DHT22;63353;48.702;8.884;2022-09-27T09:56:23;11.10;84.90
74822;DHT22;63353;48.702;8.884;2022-09-27T09:58:56;11.60;85.90
74822;DHT22;63353;48.702;8.884;2022-09-27T10:04:05;11.80;83.70
74822;DHT22;63353;48.702;8.884;2022-09-27T10:06:31;11.60;83.10
74822;DHT22;63353;48.702;8.884;2022-09-27T10:08:58;11.00;86.00
74822;DHT22;63353;48.702;8.884;2022-09-27T10:11:27;11.00;86.80
74822;DHT22;63353;48.702;8.884;2022-09-27T10:13:56;11.00;86.00
74822;DHT22;63353;48.702;8.884;2022-09-27T10:16:22;10.70;86.50
74822;DHT22;63353;48.702;8.884;2022-09-27T10:18:54;10.90;84.80
74822;DHT22;63353;48.702;8.884;2022-09-27T10:21:26;11.00;85.20
74822;DHT22;63353;48.702;8.884;2022-09-27T10:26:29;11.10;85.20
74822;DHT22;63353;48.702;8.884;2022-09-27T10:28:55;10.80;83.90
74822;DHT22;63353;48.702;8.884;2022-09-27T10:31:21;10.70;84.10
74822;DHT22;63353;48.702;8.884;2022-09-27T10:33:58;10.80;86.60
74822;DHT22;63353;48.702;8.884;2022-09-27T10:36:32;10.60;82.60
74822;DHT22;63353;48.702;8.884;2022-09-27T10:39:01;10.70;86.40
74822;DHT22;63353;48.702;8.884;2022-09-27T10:41:34;10.60;82.30
74822;DHT22;63353;48.702;8.884;2022-09-27T10:46:53;10.30;86.30
74822;DHT22;63353;48.702;8.884;2022-09-27T10:49:26;10.30;86.30
74822;DHT22;63353;48.702;8.884;2022-09-27T10:52:02;10.30;87.20
74822;DHT22;63353;48.702;8.884;2022-09-27T10:54:32;10.10;84.60
74822;DHT22;63353;48.702;8.884;2022-09-27T10:57:04;10.10;87.80
74822;DHT22;63353;48.702;8.884;2022-09-27T10:59:35;10.30;85.20
74822;DHT22;63353;48.702;8.884;2022-09-27T11:02:02;10.40;85.50
74822;DHT22;63353;48.702;8.884;2022-09-27T11:04:31;10.50;84.40
74822;DHT22;63353;48.702;8.884;2022-09-27T11:07:17;10.60;86.20
74822;DHT22;63353;48.702;8.884;2022-09-27T11:09:50;11.10;85.30
74822;DHT22;63353;48.702;8.884;2022-09-27T11:12:17;11.20;82.20
74822;DHT22;63353;48.702;8.884;2022-09-27T11:14:55;11.20;84.20
74822;DHT22;63353;48.702;8.884;2022-09-27T11:31:18;10.30;92.10
74822;DHT22;63353;48.702;8.884;2022-09-27T11:37:19;11.10;87.20
74822;DHT22;63353;48.702;8.884;2022-09-27T11:40:11;11.10;86.30
74822;DHT22;63353;48.702;8.884;2022-09-27T11:45:53;10.50;89.60
74822;DHT22;63353;48.702;8.884;2022-09-27T11:48:42;10.50;91.30
74822;DHT22;63353;48.702;8.884;2022-09-27T12:10:48;10.10;92.30
74822;DHT22;63353;48.702;8.884;2022-09-27T12:13:17;10.20;96.40
74822;DHT22;63353;48.702;8.884;2022-09-27T12:15:45;10.60;96.20
74822;DHT22;63353;48.702;8.884;2022-09-27T12:18:30;10.70;93.60
74822;DHT22;63353;48.702;8.884;2022-09-27T12:21:00;10.80;92.50
74822;DHT22;63353;48.702;8.884;2022-09-27T12:23:51;10.70;94.10
74822;DHT22;63353;48.702;8.884;2022-09-27T12:26:19;10.50;93.50
74822;DHT22;63353;48.702;8.884;2022-09-27T12:28:56;10.80;95.20
74822;DHT22;63353;48.702;8.884;2022-09-27T12:34:36;10.80;93.50
74822;DHT22;63353;48.702;8.884;2022-09-27T12:37:23;10.70;93.30
74822;DHT22;63353;48.702;8.884;2022-09-27T12:42:37;10.70;91.80
74822;DHT22;63353;48.702;8.884;2022-09-27T12:45:04;10.80;93.00
74822;DHT22;63353;48.702;8.884;2022-09-27T12:47:43;10.90;92.80
74822;DHT22;63353;48.702;8.884;2022-09-27T12:50:29;11.30;91.30
74822;DHT22;63353;48.702;8.884;2022-09-27T12:53:04;11.70;92.90
74822;DHT22;63353;48.702;8.884;2022-09-27T13:10:08;12.70;89.20
74822;DHT22;63353;48.702;8.884;2022-09-27T13:12:40;12.80;83.70
74822;DHT22;63353;48.702;8.884;2022-09-27T13:22:57;15.80;75.30
74822;DHT22;63353;48.702;8.884;2022-09-27T13:25:51;15.10;71.10
74822;DHT22;63353;48.702;8.884;2022-09-27T13:33:39;13.90;75.30
74822;DHT22;63353;48.702;8.884;2022-09-27T13:46:51;12.60;80.90
74822;DHT22;63353;48.702;8.884;2022-09-27T13:49:41;13.20;76.90
74822;DHT22;63353;48.702;8.884;2022-09-27T13:52:28;12.50;79.20
74822;DHT22;63353;48.702;8.884;2022-09-27T13:55:00;13.20;76.00
74822;DHT22;63353;48.702;8.884;2022-09-27T13:57:46;15.00;72.00
74822;DHT22;63353;48.702;8.884;2022-09-27T14:00:21;14.20;70.30
74822;DHT22;63353;48.702;8.884;2022-09-27T14:05:49;13.20;73.90
74822;DHT22;63353;48.702;8.884;2022-09-27T14:08:26;12.50;75.60
74822;DHT22;63353;48.702;8.884;2022-09-27T14:10:54;11.80;78.20
74822;DHT22;63353;48.702;8.884;2022-09-27T14:13:22;11.50;77.50
74822;DHT22;63353;48.702;8.884;2022-09-27T14:15:50;11.30;78.80
74822;DHT22;63353;48.702;8.884;2022-09-27T14:18:16;11.30;78.20
74822;DHT22;63353;48.702;8.884;2022-09-27T14:20:44;11.50;78.10
74822;DHT22;63353;48.702;8.884;2022-09-27T14:23:16;12.30;77.30
74822;DHT22;63353;48.702;8.884;2022-09-27T14:25:47;11.70;78.90
74822;DHT22;63353;48.702;8.884;2022-09-27T14:28:30;11.50;79.80
74822;DHT22;63353;48.702;8.884;2022-09-27T14:31:21;11.00;80.70
74822;DHT22;63353;48.702;8.884;2022-09-27T14:33:48;10.90;82.70
74822;DHT22;63353;48.702;8.884;2022-09-27T14:36:30;11.20;83.10
74822;DHT22;63353;48.702;8.884;2022-09-27T14:39:22;11.20;79.60
74822;DHT22;63353;48.702;8.884;2022-09-27T14:41:48;11.50;80.00
74822;DHT22;63353;48.702;8.884;2022-09-27T14:44:18;11.70;79.80
74822;DHT22;63353;48.702;8.884;2022-09-27T14:46:45;12.90;81.00
74822;DHT22;63353;48.702;8.884;2022-09-27T14:49:22;12.80;72.00
74822;DHT22;63353;48.702;8.884;2022-09-27T14:51:55;12.90;70.40
74822;DHT22;63353;48.702;8.884;2022-09-27T14:54:30;13.30;71.70
74822;DHT22;63353;48.702;8.884;2022-09-27T14:56:57;13.90;69.50
74822;DHT22;63353;48.702;8.884;2022-09-27T14:59:32;13.70;68.90
74822;DHT22;63353;48.702;8.884;2022-09-27T15:02:01;14.00;66.90
74822;DHT22;63353;48.702;8.884;2022-09-27T15:04:31;13.00;70.10
74822;DHT22;63353;48.702;8.884;2022-09-27T15:06:57;13.50;72.50
74822;DHT22;63353;48.702;8.884;2022-09-27T15:09:24;14.70;65.60
74822;DHT22;63353;48.702;8.884;2022-09-27T15:11:54;14.10;67.60
74822;DHT22;63353;48.702;8.884;2022-09-27T15:14:22;13.20;68.40
74822;DHT22;63353;48.702;8.884;2022-09-27T15:16:50;12.60;68.90
74822;DHT22;63353;48.702;8.884;2022-09-27T15:19:27;12.20;73.50
74822;DHT22;63353;48.702;8.884;2022-09-27T15:21:53;12.10;68.50
74822;DHT22;63353;48.702;8.884;2022-09-27T15:24:44;11.60;72.00
74822;DHT22;63353;48.702;8.884;2022-09-27T15:27:23;11.30;71.80
74822;DHT22;63353;48.702;8.884;2022-09-27T15:29:54;11.20;73.90
74822;DHT22;63353;48.702;8.884;2022-09-27T15:32:25;11.40;74.00
74822;DHT22;63353;48.702;8.884;2022-09-27T15:34:52;11.50;72.40
74822;DHT22;63353;48.702;8.884;2022-09-27T15:37:36;11.50;74.80
74822;DHT22;63353;48.702;8.884;2022-09-27T15:42:53;11.50;70.80
74822;DHT22;63353;48.702;8.884;2022-09-27T15:45:32;11.60;71.40
74822;DHT22;63353;48.702;8.884;2022-09-27T15:48:14;12.20;69.70
74822;DHT22;63353;48.702;8.884;2022-09-27T15:50:40;12.90;66.40
74822;DHT22;63353;48.702;8.884;2022-09-27T15:53:07;12.80;64.80
74822;DHT22;63353;48.702;8.884;2022-09-27T15:55:38;12.20;68.90
74822;DHT22;63353;48.702;8.884;2022-09-27T15:58:10;11.30;70.20
74822;DHT22;63353;48.702;8.884;2022-09-27T16:00:56;10.80;73.10
74822;DHT22;63353;48.702;8.884;2022-09-27T16:03:25;10.50;75.90
74822;DHT22;63353;48.702;8.884;2022-09-27T16:05:52;10.40;75.70
74822;DHT22;63353;48.702;8.884;2022-09-27T16:08:20;10.40;76.20
74822;DHT22;63353;48.702;8.884;2022-09-27T16:10:52;10.30;77.40
74822;DHT22;63353;48.702;8.884;2022-09-27T16:13:19;10.30;77.70
74822;DHT22;63353;48.702;8.884;2022-09-27T16:15:46;10.10;78.90
74822;DHT22;63353;48.702;8.884;2022-09-27T16:18:12;10.00;79.50
74822;DHT22;63353;48.702;8.884;2022-09-27T16:20:38;9.90;79.40
74822;DHT22;63353;48.702;8.884;2022-09-27T16:23:05;9.90;79.40
74822;DHT22;63353;48.702;8.884;2022-09-27T16:25:30;9.90;80.00
74822;DHT22;63353;48.702;8.884;2022-09-27T16:28:00;9.70;79.90
74822;DHT22;63353;48.702;8.884;2022-09-27T16:30:26;9.50;82.60
74822;DHT22;63353;48.702;8.884;2022-09-27T16:32:52;9.60;82.00
74822;DHT22;63353;48.702;8.884;2022-09-27T16:35:20;9.40;82.50
74822;DHT22;63353;48.702;8.884;2022-09-27T16:37:46;9.40;83.30
74822;DHT22;63353;48.702;8.884;2022-09-27T16:40:13;9.30;83.20
74822;DHT22;63353;48.702;8.884;2022-09-27T16:42:40;9.30;84.80
74822;DHT22;63353;48.702;8.884;2022-09-27T16:45:07;9.10;86.00
74822;DHT22;63353;48.702;8.884;2022-09-27T16:47:33;9.10;86.60
74822;DHT22;63353;48.702;8.884;2022-09-27T16:49:59;9.10;86.50
74822;DHT22;63353;48.702;8.884;2022-09-27T16:52:51;9.00;86.30
74822;DHT22;63353;48.702;8.884;2022-09-27T16:55:17;9.00;86.80
74822;DHT22;63353;48.702;8.884;2022-09-27T16:57:48;8.90;88.70
74822;DHT22;63353;48.702;8.884;2022-09-27T17:00:16;9.00;88.90
74822;DHT22;63353;48.702;8.884;2022-09-27T17:02:43;8.90;88.90
74822;DHT22;63353;48.702;8.884;2022-09-27T17:05:12;8.90;88.40
74822;DHT22;63353;48.702;8.884;2022-09-27T17:07:38;8.80;88.90
74822;DHT22;63353;48.702;8.884;2022-09-27T17:10:05;8.80;89.60
74822;DHT22;63353;48.702;8.884;2022-09-27T17:12:32;8.80;89.20
74822;DHT22;63353;48.702;8.884;2022-09-27T17:14:58;8.70;90.00
74822;DHT22;63353;48.702;8.884;2022-09-27T17:17:24;8.70;89.70
74822;DHT22;63353;48.702;8.884;2022-09-27T17:19:50;8.70;90.20
74822;DHT22;63353;48.702;8.884;2022-09-27T17:22:16;8.60;90.30
74822;DHT22;63353;48.702;8.884;2022-09-27T17:24:41;8.50;90.40
74822;DHT22;63353;48.702;8.884;2022-09-27T17:27:07;8.50;90.90
74822;DHT22;63353;48.702;8.884;2022-09-27T17:29:33;8.50;90.80
74822;DHT22;63353;48.702;8.884;2022-09-27T17:31:59;8.40;90.70
74822;DHT22;63353;48.702;8.884;2022-09-27T17:34:25;8.30;90.90
74822;DHT22;63353;48.702;8.884;2022-09-27T17:36:51;8.30;91.00
74822;DHT22;63353;48.702;8.884;2022-09-27T17:39:19;8.20;91.30
74822;DHT22;63353;48.702;8.884;2022-09-27T17:41:48;8.20;91.40
74822;DHT22;63353;48.702;8.884;2022-09-27T17:44:15;8.20;91.70
74822;DHT22;63353;48.702;8.884;2022-09-27T17:46:43;8.20;91.60
74822;DHT22;63353;48.702;8.884;2022-09-27T17:49:10;8.20;91.80
74822;DHT22;63353;48.702;8.884;2022-09-27T17:51:55;8.10;91.90
74822;DHT22;63353;48.702;8.884;2022-09-27T17:54:22;8.00;92.10
74822;DHT22;63353;48.702;8.884;2022-09-27T17:56:49;8.10;92.40
74822;DHT22;63353;48.702;8.884;2022-09-27T17:59:15;8.00;92.80
74822;DHT22;63353;48.702;8.884;2022-09-27T18:01:42;7.90;93.00
74822;DHT22;63353;48.702;8.884;2022-09-27T18:04:10;7.90;92.60
74822;DHT22;63353;48.702;8.884;2022-09-27T18:06:42;7.80;92.70
74822;DHT22;63353;48.702;8.884;2022-09-27T18:09:10;7.80;93.50
74822;DHT22;63353;48.702;8.884;2022-09-27T18:11:37;7.70;93.50
74822;DHT22;63353;48.702;8.884;2022-09-27T18:14:04;7.70;93.70
74822;DHT22;63353;48.702;8.884;2022-09-27T18:16:33;7.60;93.90
74822;DHT22;63353;48.702;8.884;2022-09-27T18:19:03;7.60;93.50
74822;DHT22;63353;48.702;8.884;2022-09-27T18:21:29;7.50;93.90
74822;DHT22;63353;48.702;8.884;2022-09-27T18:23:57;7.50;94.20
74822;DHT22;63353;48.702;8.884;2022-09-27T18:26:25;7.40;94.00
74822;DHT22;63353;48.702;8.884;2022-09-27T18:28:53;7.40;94.20
74822;DHT22;63353;48.702;8.884;2022-09-27T18:31:20;7.20;94.40
74822;DHT22;63353;48.702;8.884;2022-09-27T18:33:47;7.20;94.60
74822;DHT22;63353;48.702;8.884;2022-09-27T18:36:19;7.10;95.10
74822;DHT22;63353;48.702;8.884;2022-09-27T18:38:50;7.00;94.90
74822;DHT22;63353;48.702;8.884;2022-09-27T18:41:18;7.00;94.60
74822;DHT22;63353;48.702;8.884;2022-09-27T18:43:45;7.00;94.20
74822;DHT22;63353;48.702;8.884;2022-09-27T18:46:15;7.00;94.10
74822;DHT22;63353;48.702;8.884;2022-09-27T18:48:41;6.90;94.40
74822;DHT22;63353;48.702;8.884;2022-09-27T18:51:08;6.90;94.60
74822;DHT22;63353;48.702;8.884;2022-09-27T18:53:37;6.80;94.90
74822;DHT22;63353;48.702;8.884;2022-09-27T18:56:05;6.70;95.00
74822;DHT22;63353;48.702;8.884;2022-09-27T18:58:33;6.60;95.20
74822;DHT22;63353;48.702;8.884;2022-09-27T19:00:59;6.50;95.50
74822;DHT22;63353;48.702;8.884;2022-09-27T19:03:25;6.50;95.90